createdAt,value
2018-11-25T00:00:41.325Z,87.85
2018-11-25T00:03:46.727Z,88.16
2018-11-25T00:06:52.251Z,87.88
2018-11-25T00:09:57.772Z,87.95
2018-11-25T00:13:03.414Z,88.52
2018-11-25T00:16:08.815Z,89.04
2018-11-25T00:19:14.220Z,89.34
2018-11-25T00:22:19.623Z,89.11
2018-11-25T00:25:25.022Z,88.99
2018-11-25T00:28:30.542Z,89.13
2018-11-25T00:31:35.946Z,88.22
2018-11-25T00:34:41.468Z,88.73
2018-11-25T00:37:48.280Z,88.63
2018-11-25T00:40:52.272Z,89.06
2018-11-25T00:43:57.793Z,88.52
2018-11-25T00:47:03.199Z,89.01
2018-11-25T00:50:10.159Z,88.37
2018-11-25T00:53:15.441Z,88.00
2018-11-25T00:56:20.843Z,88.11
2018-11-25T00:59:26.364Z,88.36
2018-11-25T01:02:31.767Z,86.95
2018-11-25T01:05:37.408Z,86.95
2018-11-25T01:08:42.690Z,87.74
2018-11-25T01:11:48.097Z,87.30
2018-11-25T01:14:53.498Z,88.73
2018-11-25T01:17:58.896Z,89.35
2018-11-25T01:21:12.099Z,89.60
2018-11-25T01:24:18.342Z,89.30
2018-11-25T01:31:23.748Z,89.40
2018-11-25T01:34:29.389Z,87.90
2018-11-25T01:37:35.031Z,87.57
2018-11-25T01:40:40.433Z,87.32
2018-11-25T01:47:45.357Z,87.58
2018-11-25T01:50:50.760Z,88.75
2018-11-25T01:53:56.165Z,88.71
2018-11-25T01:57:01.563Z,87.52
2018-11-25T02:00:18.967Z,88.50
2018-11-25T02:03:24.369Z,88.83
2018-11-25T02:06:29.650Z,88.79
2018-11-25T02:09:35.052Z,88.19
2018-11-25T02:12:40.333Z,89.34
2018-11-25T02:15:45.735Z,87.63
2018-11-25T02:18:51.139Z,88.53
2018-11-25T02:21:56.420Z,88.50
2018-11-25T02:25:01.822Z,88.44
2018-11-25T02:28:07.223Z,88.38
2018-11-25T02:31:12.626Z,87.74
2018-11-25T02:34:18.029Z,87.99
2018-11-25T02:37:23.311Z,87.77
2018-11-25T02:40:28.713Z,88.21
2018-11-25T02:43:34.235Z,87.61
2018-11-25T02:46:39.519Z,87.46
2018-11-25T02:49:44.920Z,87.62
2018-11-25T02:52:50.320Z,87.53
2018-11-25T02:55:55.843Z,87.96
2018-11-25T02:59:01.245Z,88.35
2018-11-25T03:02:06.768Z,88.20
2018-11-25T03:05:12.169Z,87.65
2018-11-25T03:08:17.691Z,88.57
2018-11-25T03:11:23.094Z,88.07
2018-11-25T03:14:28.495Z,87.74
2018-11-25T03:17:33.777Z,89.09
2018-11-25T03:20:39.180Z,88.97
2018-11-25T03:23:44.582Z,87.96
2018-11-25T03:26:49.863Z,87.67
2018-11-25T03:29:55.265Z,87.75
2018-11-25T03:33:00.549Z,87.83
2018-11-25T03:36:05.951Z,89.34
2018-11-25T03:39:11.352Z,89.21
2018-11-25T03:42:16.633Z,87.93
2018-11-25T03:45:22.276Z,87.87
2018-11-25T03:48:27.678Z,87.73
2018-11-25T03:51:33.080Z,88.83
2018-11-25T03:54:38.603Z,88.67
2018-11-25T03:57:43.884Z,88.80
2018-11-25T04:00:49.287Z,89.26
2018-11-25T04:03:54.570Z,87.70
2018-11-25T04:06:59.972Z,88.02
2018-11-25T04:10:09.572Z,87.15
2018-11-25T04:13:14.975Z,88.29
2018-11-25T04:16:20.377Z,87.27
2018-11-25T04:19:25.779Z,87.37
2018-11-25T04:22:31.182Z,88.10
2018-11-25T04:25:36.583Z,88.28
2018-11-25T04:28:41.870Z,87.03
2018-11-25T04:31:47.273Z,87.73
2018-11-25T04:35:06.830Z,87.02
2018-11-25T04:38:12.110Z,86.65
2018-11-25T04:41:17.636Z,87.94
2018-11-25T04:44:23.293Z,87.65
2018-11-25T04:47:28.318Z,86.87
2018-11-25T04:50:33.738Z,87.60
2018-11-25T04:53:39.122Z,87.10
2018-11-25T04:56:44.645Z,87.73
2018-11-25T04:59:50.050Z,86.92
2018-11-25T05:02:55.448Z,86.86
2018-11-25T05:06:00.973Z,87.01
2018-11-25T05:09:08.173Z,86.70
2018-11-25T05:12:13.574Z,87.44
2018-11-25T05:15:21.230Z,86.86
2018-11-25T05:18:26.779Z,87.58
2018-11-25T05:21:32.182Z,86.98
2018-11-25T05:24:37.463Z,88.85
2018-11-25T05:27:42.865Z,89.09
2018-11-25T05:30:48.387Z,90.32
2018-11-25T05:33:53.669Z,89.60
2018-11-25T05:36:59.070Z,89.66
2018-11-25T05:40:04.833Z,89.66
2018-11-25T05:43:10.236Z,88.58
2018-11-25T05:46:15.639Z,89.22
2018-11-25T05:49:21.159Z,88.62
2018-11-25T05:52:26.560Z,88.26
2018-11-25T05:55:31.964Z,88.99
2018-11-25T05:58:37.364Z,89.90
2018-11-25T06:01:42.770Z,89.58
2018-11-25T06:04:48.050Z,89.33
2018-11-25T06:07:53.697Z,90.84
2018-11-25T06:10:59.453Z,90.64
2018-11-25T06:14:04.857Z,90.42
2018-11-25T06:17:10.259Z,89.18
2018-11-25T06:20:16.623Z,90.04
2018-11-25T06:23:22.142Z,89.70
2018-11-25T06:26:27.544Z,88.87
2018-11-25T06:29:32.947Z,88.99
2018-11-25T06:36:37.874Z,89.07
2018-11-25T06:47:41.959Z,88.86
2018-11-25T06:50:47.241Z,89.04
2018-11-25T06:53:52.643Z,89.37
2018-11-25T06:56:58.045Z,89.16
2018-11-25T07:00:06.447Z,88.20
2018-11-25T07:03:11.857Z,89.24
2018-11-25T07:06:17.491Z,88.08
2018-11-25T07:09:23.253Z,88.82
2018-11-25T07:12:28.657Z,87.63
2018-11-25T07:15:34.059Z,88.26
2018-11-25T07:18:40.299Z,87.69
2018-11-25T07:22:00.462Z,88.27
2018-11-25T07:25:09.282Z,88.25
2018-11-25T07:32:20.152Z,88.98
2018-11-25T07:35:27.356Z,88.87
2018-11-25T07:38:33.352Z,88.65
2018-11-25T07:41:39.235Z,88.28
2018-11-25T07:44:44.881Z,87.67
2018-11-25T07:47:50.642Z,88.18
2018-11-25T07:50:56.280Z,87.79
2018-11-25T07:58:05.652Z,88.60
2018-11-25T08:01:11.409Z,89.01
2018-11-25T08:04:17.289Z,88.62
2018-11-25T08:07:23.534Z,87.97
2018-11-25T08:10:29.054Z,89.38
2018-11-25T08:13:34.820Z,89.10
2018-11-25T08:16:40.941Z,88.97
2018-11-25T08:19:46.460Z,89.08
2018-11-25T08:22:52.468Z,89.16
2018-11-25T08:25:58.225Z,89.94
2018-11-25T08:29:04.116Z,90.18
2018-11-25T08:32:09.510Z,91.28
2018-11-25T08:35:16.248Z,91.04
2018-11-25T08:38:21.753Z,89.70
2018-11-25T08:41:27.671Z,90.41
2018-11-25T08:44:33.282Z,90.55
2018-11-25T08:47:39.521Z,88.89
2018-11-25T08:50:45.047Z,89.14
2018-11-25T08:53:50.565Z,87.79
2018-11-25T08:57:04.246Z,87.97
2018-11-25T09:00:23.207Z,88.72
2018-11-25T09:03:28.732Z,87.74
2018-11-25T09:06:55.253Z,87.89
2018-11-25T09:10:00.900Z,87.40
2018-11-25T09:13:06.658Z,87.42
2018-11-25T09:16:12.302Z,87.62
2018-11-25T09:19:17.827Z,87.91
2018-11-25T09:22:23.343Z,87.63
2018-11-25T09:25:30.428Z,88.15
2018-11-25T09:28:37.628Z,88.66
2018-11-25T09:31:43.393Z,88.22
2018-11-25T09:34:49.751Z,88.47
2018-11-25T09:37:55.399Z,89.49
2018-11-25T09:41:06.075Z,88.45
2018-11-25T09:44:11.600Z,89.32
2018-11-25T09:47:17.129Z,89.78
2018-11-25T09:50:23.606Z,89.74
2018-11-25T09:53:29.244Z,90.07
2018-11-25T09:56:34.892Z,89.65
2018-11-25T09:59:40.408Z,88.57
2018-11-25T10:02:46.174Z,89.13
2018-11-25T10:05:51.692Z,88.76
2018-11-25T10:08:57.576Z,88.43
2018-11-25T10:12:03.457Z,87.67
2018-11-25T10:15:11.034Z,87.00
2018-11-25T10:22:16.543Z,86.83
2018-11-25T10:25:23.746Z,87.24
2018-11-25T10:28:29.748Z,85.77
2018-11-25T10:32:02.171Z,86.13
2018-11-25T10:35:08.512Z,85.81
2018-11-25T10:38:14.756Z,85.77
2018-11-25T10:41:20.639Z,86.29
2018-11-25T10:44:26.641Z,86.64
2018-11-25T10:47:32.775Z,86.89
2018-11-25T10:50:38.525Z,87.29
2018-11-25T11:01:51.976Z,89.93
2018-11-25T11:05:05.419Z,90.72
2018-11-25T11:08:10.942Z,90.60
2018-11-25T11:11:18.137Z,90.20
2018-11-25T11:14:24.146Z,89.71
2018-11-25T11:17:29.662Z,90.22
2018-11-25T11:20:36.384Z,89.66
2018-11-25T11:23:42.424Z,88.95
2018-11-25T11:26:49.714Z,90.92
2018-11-25T11:29:55.359Z,89.78
2018-11-25T11:33:01.122Z,90.15
2018-11-25T11:36:07.598Z,89.72
2018-11-25T11:39:13.727Z,87.52
2018-11-25T11:42:19.718Z,88.76
2018-11-25T11:54:01.856Z,86.68
2018-11-25T11:57:07.490Z,87.11
2018-11-25T12:00:19.611Z,87.14
2018-11-25T12:03:26.558Z,87.42
2018-11-25T12:06:31.257Z,86.14
2018-11-25T12:09:37.043Z,85.61
2018-11-25T12:12:43.020Z,84.67
2018-11-25T12:15:49.383Z,83.77
2018-11-25T12:18:55.030Z,83.56
2018-11-25T12:22:00.792Z,83.54
2018-11-25T12:25:17.469Z,84.52
2018-11-25T12:28:23.833Z,84.54
2018-11-25T12:31:29.714Z,83.91
2018-11-25T12:34:57.111Z,85.84
2018-11-25T12:38:02.837Z,86.77
2018-11-25T12:41:17.240Z,86.92
2018-11-25T12:44:25.756Z,86.22
2018-11-25T12:47:28.884Z,87.08
2018-11-25T12:50:34.890Z,87.03
2018-11-25T12:53:40.550Z,87.22
2018-11-25T12:56:51.643Z,87.00
2018-11-25T12:59:52.060Z,86.56
2018-11-25T13:02:58.059Z,87.50
2018-11-25T13:06:04.418Z,86.44
2018-11-25T13:09:10.060Z,86.32
2018-11-25T13:12:15.940Z,86.20
2018-11-25T13:15:22.788Z,86.87
2018-11-25T13:18:29.871Z,86.08
2018-11-25T13:21:36.115Z,85.46
2018-11-25T13:24:41.991Z,85.61
2018-11-25T13:27:51.484Z,85.63
2018-11-25T13:30:57.239Z,85.86
2018-11-25T13:34:03.359Z,85.51
2018-11-25T13:37:10.919Z,85.04
2018-11-25T13:40:17.045Z,86.19
2018-11-25T13:43:23.819Z,85.68
2018-11-25T13:46:30.485Z,85.58
2018-11-25T13:49:37.093Z,84.73
2018-11-25T13:52:42.859Z,85.08
2018-11-25T13:55:48.616Z,86.14
2018-11-25T13:58:54.379Z,85.20
2018-11-25T14:05:59.912Z,85.34
2018-11-25T14:09:10.820Z,84.01
2018-11-25T14:12:18.556Z,84.17
2018-11-25T14:15:24.922Z,83.99
2018-11-25T14:18:31.165Z,83.79
2018-11-25T14:21:37.589Z,84.51
2018-11-25T14:24:43.591Z,83.96
2018-11-25T14:27:54.278Z,84.58
2018-11-25T14:31:07.475Z,84.04
2018-11-25T14:34:13.117Z,84.38
2018-11-25T14:41:18.768Z,84.61
2018-11-25T14:44:25.125Z,86.07
2018-11-25T14:47:32.091Z,85.58
2018-11-25T14:50:37.851Z,85.77
2018-11-25T14:53:44.692Z,85.33
2018-11-25T14:56:50.573Z,85.73
2018-11-25T14:59:56.215Z,84.88
2018-11-25T15:03:03.184Z,85.15
2018-11-25T15:06:09.122Z,85.70
2018-11-25T15:09:14.703Z,84.81
2018-11-25T15:12:46.504Z,85.77
2018-11-25T15:15:52.321Z,86.08
2018-11-25T15:18:57.789Z,85.89
2018-11-25T15:22:03.553Z,85.43
2018-11-25T15:25:11.474Z,84.77
2018-11-25T15:28:17.363Z,86.01
2018-11-25T15:31:22.757Z,85.69
2018-11-25T15:34:28.284Z,86.00
2018-11-25T15:37:34.168Z,85.02
2018-11-25T15:40:40.649Z,85.86
2018-11-25T15:43:54.448Z,84.90
2018-11-25T15:47:07.775Z,87.11
2018-11-25T15:50:08.853Z,86.94
2018-11-25T15:53:14.493Z,86.10
2018-11-25T15:56:20.020Z,87.37
2018-11-25T15:59:25.538Z,87.36
2018-11-25T16:02:31.075Z,87.89
2018-11-25T16:06:02.771Z,88.29
2018-11-25T16:09:09.594Z,88.26
2018-11-25T16:12:15.112Z,88.06
2018-11-25T16:15:23.028Z,89.06
2018-11-25T16:18:28.675Z,87.98
2018-11-25T16:21:34.328Z,89.17
2018-11-25T16:24:39.834Z,88.24
2018-11-25T16:27:45.836Z,88.39
2018-11-25T16:30:51.239Z,88.29
2018-11-25T16:33:57.242Z,88.66
2018-11-25T16:37:02.769Z,88.79
2018-11-25T16:40:12.725Z,88.06
2018-11-25T16:43:18.250Z,88.41
2018-11-25T16:46:23.888Z,87.68
2018-11-25T16:49:29.534Z,89.31
2018-11-25T16:52:35.294Z,88.70
2018-11-25T16:55:41.057Z,87.58
2018-11-25T16:58:46.698Z,88.73
2018-11-25T17:01:52.823Z,88.12
2018-11-25T17:04:58.223Z,89.04
2018-11-25T17:08:12.624Z,89.62
2018-11-25T17:11:18.148Z,89.13
2018-11-25T17:14:23.673Z,88.82
2018-11-25T17:17:29.190Z,88.80
2018-11-25T17:20:34.952Z,89.59
2018-11-25T17:23:40.475Z,88.38
2018-11-25T17:26:46.240Z,88.70
2018-11-25T17:29:51.878Z,88.73
2018-11-25T17:32:57.282Z,88.31
2018-11-25T17:36:02.807Z,89.56
2018-11-25T17:39:08.812Z,88.96
2018-11-25T17:42:14.809Z,89.40
2018-11-25T17:45:20.937Z,88.34
2018-11-25T17:48:27.170Z,89.04
2018-11-25T17:51:33.174Z,88.40
2018-11-25T17:54:39.536Z,87.43
2018-11-25T17:57:48.668Z,87.92
2018-11-25T18:00:58.389Z,88.57
2018-11-25T18:04:15.185Z,88.21
2018-11-25T18:07:20.827Z,87.94
2018-11-25T18:10:26.465Z,88.96
2018-11-25T18:13:34.304Z,89.35
2018-11-25T18:16:40.032Z,88.09
2018-11-25T18:19:45.677Z,87.67
2018-11-25T18:22:52.041Z,87.84
2018-11-25T18:25:58.880Z,88.21
2018-11-25T18:29:04.879Z,88.07
2018-11-25T18:32:10.644Z,88.83
2018-11-25T18:35:16.288Z,87.46
2018-11-25T18:38:21.810Z,87.08
2018-11-25T18:41:27.327Z,87.45
2018-11-25T18:44:33.090Z,88.12
2018-11-25T18:47:39.094Z,87.32
2018-11-25T18:50:44.733Z,86.73
2018-11-25T18:53:50.141Z,87.51
2018-11-25T18:56:55.900Z,87.87
2018-11-25T19:00:01.540Z,87.19
2018-11-25T19:03:07.183Z,86.65
2018-11-25T19:06:12.583Z,86.72
2018-11-25T19:09:18.348Z,86.14
2018-11-25T19:12:24.112Z,86.60
2018-11-25T19:15:29.994Z,85.71
2018-11-25T19:18:35.753Z,85.51
2018-11-25T19:21:41.792Z,86.49
2018-11-25T19:24:47.884Z,86.12
2018-11-25T19:28:01.199Z,85.88
2018-11-25T19:31:07.685Z,85.52
2018-11-25T19:34:14.527Z,86.61
2018-11-25T19:37:20.165Z,86.84
2018-11-25T19:40:26.648Z,87.02
2018-11-25T19:43:32.289Z,86.93
2018-11-25T19:46:39.372Z,86.58
2018-11-25T19:49:45.029Z,87.14
2018-11-25T19:52:50.777Z,87.44
2018-11-25T19:55:56.298Z,87.60
2018-11-25T19:59:01.945Z,87.35
2018-11-25T20:02:07.822Z,88.47
2018-11-25T20:05:13.951Z,89.14
2018-11-25T20:08:20.666Z,87.85
2018-11-25T20:11:26.194Z,88.48
2018-11-25T20:14:32.075Z,87.86
2018-11-25T20:17:37.837Z,87.72
2018-11-25T20:20:48.158Z,87.67
2018-11-25T20:23:54.645Z,88.63
2018-11-25T20:27:05.919Z,87.81
2018-11-25T20:30:12.886Z,88.71
2018-11-25T20:33:24.408Z,88.10
2018-11-25T20:36:29.932Z,88.42
2018-11-25T20:39:36.648Z,87.87
2018-11-25T20:42:42.050Z,88.14
2018-11-25T20:45:52.972Z,88.45
2018-11-25T20:48:58.734Z,88.05
2018-11-25T20:52:10.139Z,87.84
2018-11-25T20:55:15.659Z,88.34
2018-11-25T20:58:21.061Z,89.65
2018-11-25T21:01:26.463Z,89.85
2018-11-25T21:04:31.985Z,89.52
2018-11-25T21:07:38.232Z,89.62
2018-11-25T21:10:46.029Z,90.31
2018-11-25T21:13:51.551Z,89.44
2018-11-25T21:16:58.033Z,89.53
2018-11-25T21:20:06.796Z,89.24
2018-11-25T21:23:12.201Z,90.65
2018-11-25T21:26:17.599Z,89.93
2018-11-25T21:29:23.245Z,90.18
2018-11-25T21:32:28.523Z,89.01
2018-11-25T21:35:34.045Z,88.69
2018-11-25T21:38:39.567Z,88.44
2018-11-25T21:41:45.573Z,89.21
2018-11-25T21:44:50.972Z,89.90
2018-11-25T21:47:57.955Z,90.04
2018-11-25T21:51:02.019Z,89.66
2018-11-25T21:54:07.419Z,90.23
2018-11-25T21:57:13.541Z,89.41
2018-11-25T22:00:20.983Z,89.12
2018-11-25T22:03:26.624Z,90.00
2018-11-25T22:06:32.147Z,89.23
2018-11-25T22:09:37.548Z,88.86
2018-11-25T22:12:43.670Z,88.61
2018-11-25T22:15:49.195Z,87.29
2018-11-25T22:19:02.639Z,87.41
2018-11-25T22:22:16.317Z,87.44
2018-11-25T22:25:21.718Z,87.23
2018-11-25T22:28:27.241Z,86.99
2018-11-25T22:31:33.004Z,87.52
2018-11-25T22:34:38.405Z,87.22
2018-11-25T22:37:43.806Z,86.77
2018-11-25T22:40:51.133Z,85.94
2018-11-25T22:43:56.530Z,86.68
2018-11-25T22:47:01.814Z,85.51
2018-11-25T22:50:08.898Z,85.92
2018-11-25T22:53:14.417Z,86.28
2018-11-25T22:56:19.820Z,86.38
2018-11-25T23:02:28.824Z,86.48
2018-11-25T23:05:45.868Z,86.29
2018-11-25T23:08:51.989Z,86.26
2018-11-25T23:11:57.873Z,85.26
2018-11-25T23:15:03.276Z,86.32
2018-11-25T23:18:19.473Z,87.19
2018-11-25T23:21:24.996Z,86.94
2018-11-25T23:24:30.398Z,86.56
2018-11-25T23:27:36.041Z,85.86
2018-11-25T23:30:41.443Z,86.01
2018-11-25T23:33:46.725Z,85.96
2018-11-25T23:36:52.366Z,86.56
2018-11-25T23:39:58.011Z,85.34
2018-11-25T23:43:03.411Z,85.99
2018-11-25T23:46:08.813Z,85.38
2018-11-25T23:49:14.217Z,85.88
2018-11-25T23:52:19.857Z,86.59
2018-11-25T23:55:25.501Z,85.93
2018-11-25T23:58:30.901Z,86.05
